Time;durP1;ratioP1;P1;durP2;ratioP2;P2;SDS_P1;SDS_P2;PMS_P1;PMS_P2;Temp;Humidity;BMP_temperature;BMP_pressure;BME280_temperature;BME280_humidity;BME280_pressure;Samples;Min_cycle;Max_cycle;Signal;HPM_P1;HPM_P2
2021/11/30 00:01:16;;;;;;;2.88;0.90;;;;;;;4.51;34.20;98192.22;5040116;28;20074;-69
2021/11/30 00:03:42;;;;;;;12.25;5.43;;;;;;;4.48;36.39;98201.00;5054709;28;20033;-69
2021/11/30 00:06:09;;;;;;;10.30;4.57;;;;;;;4.36;36.18;98209.63;5055151;28;20495;-69
2021/11/30 00:08:37;;;;;;;4.57;1.48;;;;;;;4.21;34.80;98220.13;5046066;28;20422;-68
2021/11/30 00:11:04;;;;;;;3.53;1.13;;;;;;;4.42;35.07;98222.06;5048205;28;20065;-70
2021/11/30 00:13:32;;;;;;;2.70;0.77;;;;;;;4.42;35.16;98224.66;5040730;28;20486;-68
2021/11/30 00:15:57;;;;;;;1.42;0.40;;;;;;;4.39;35.00;98223.09;5031821;28;20022;-69
2021/11/30 00:18:24;;;;;;;2.75;0.60;;;;;;;4.45;33.78;98224.38;5054806;28;20026;-68
2021/11/30 00:20:50;;;;;;;1.95;0.50;;;;;;;4.57;35.24;98230.38;5058842;28;20102;-68
2021/11/30 00:23:16;;;;;;;1.65;0.40;;;;;;;4.55;35.08;98224.53;5040583;28;20481;-68
2021/11/30 00:25:42;;;;;;;1.20;0.35;;;;;;;4.48;36.93;98228.50;5038561;28;20036;-68
2021/11/30 00:28:08;;;;;;;0.65;0.30;;;;;;;4.66;36.19;98234.03;5060184;28;20055;-68
2021/11/30 00:30:34;;;;;;;1.55;0.40;;;;;;;4.36;35.56;98205.34;5040742;28;20355;-68
2021/11/30 00:33:01;;;;;;;1.02;0.35;;;;;;;4.44;35.66;98233.06;5019090;28;20068;-68
2021/11/30 00:35:27;;;;;;;2.28;0.50;;;;;;;4.24;34.05;98199.34;5040026;28;20033;-68
2021/11/30 00:37:53;;;;;;;2.45;0.43;;;;;;;4.52;34.24;98243.59;5032377;28;20066;-68
2021/11/30 00:40:18;;;;;;;1.13;0.30;;;;;;;4.51;33.44;98244.53;5053222;28;20530;-68
2021/11/30 00:42:44;;;;;;;1.85;0.40;;;;;;;4.53;33.53;98249.59;5038425;28;20032;-68
2021/11/30 00:45:12;;;;;;;0.80;0.40;;;;;;;4.57;33.02;98258.72;5035126;28;20017;-68
2021/11/30 00:47:44;;;;;;;1.38;0.43;;;;;;;4.49;34.56;98267.03;5061597;28;20094;-68
2021/11/30 00:50:10;;;;;;;0.65;0.30;;;;;;;4.49;33.85;98277.31;5010410;28;20020;-68
2021/11/30 00:52:35;;;;;;;1.30;0.32;;;;;;;4.43;35.02;98280.31;5054319;28;20055;-68
2021/11/30 00:55:01;;;;;;;1.02;0.40;;;;;;;3.92;37.45;98206.84;5030544;28;20064;-68
2021/11/30 00:57:26;;;;;;;2.60;0.55;;;;;;;4.18;38.32;98279.56;5039980;28;20020;-68
2021/11/30 00:59:52;;;;;;;3.20;0.95;;;;;;;4.22;39.32;98293.84;5041844;28;20041;-68
2021/11/30 01:02:18;;;;;;;4.78;0.82;;;;;;;4.24;40.33;98292.00;5040459;28;20025;-69
2021/11/30 01:04:44;;;;;;;8.27;2.78;;;;;;;3.80;40.01;98262.59;5053622;28;20029;-68
2021/11/30 01:07:11;;;;;;;5.30;2.00;;;;;;;3.78;41.46;98299.66;5033998;28;20025;-69
2021/11/30 01:09:38;;;;;;;4.80;1.00;;;;;;;3.53;41.34;98280.00;5038944;28;20033;-68
2021/11/30 01:12:04;;;;;;;2.40;0.70;;;;;;;3.71;41.51;98306.97;5051499;28;20024;-68
2021/11/30 01:14:29;;;;;;;4.53;1.00;;;;;;;3.87;43.04;98324.72;5044579;28;20545;-68
2021/11/30 01:16:55;;;;;;;3.70;1.10;;;;;;;3.84;43.49;98325.75;5026023;28;20482;-69
2021/11/30 01:19:20;;;;;;;2.70;0.82;;;;;;;3.53;43.89;98329.66;5030940;28;20030;-68
2021/11/30 01:21:46;;;;;;;3.40;0.70;;;;;;;3.69;44.82;98339.69;5037658;28;20021;-69
2021/11/30 01:24:11;;;;;;;5.28;1.48;;;;;;;3.54;45.57;98341.59;5033392;28;20032;-68
2021/11/30 01:26:37;;;;;;;4.57;1.60;;;;;;;3.18;45.84;98309.78;5056728;28;20028;-68
2021/11/30 01:29:04;;;;;;;5.43;1.75;;;;;;;3.33;45.87;98350.78;5035393;28;20035;-68
2021/11/30 01:31:29;;;;;;;4.70;1.15;;;;;;;3.25;46.78;98353.88;5051760;28;20058;-68
2021/11/30 01:33:54;;;;;;;4.50;1.27;;;;;;;3.31;47.63;98350.06;5054957;28;20085;-68
2021/11/30 01:36:20;;;;;;;4.75;1.52;;;;;;;3.11;48.02;98320.59;5002568;28;20507;-69
2021/11/30 01:38:45;;;;;;;5.43;1.90;;;;;;;3.32;48.46;98367.13;5041358;28;20077;-69
2021/11/30 01:41:13;;;;;;;4.03;1.17;;;;;;;3.16;48.84;98370.75;5057907;28;20123;-68
2021/11/30 01:43:41;;;;;;;3.78;1.15;;;;;;;3.22;50.21;98372.88;5042933;28;20027;-68
2021/11/30 01:51:17;;;;;;;2.65;0.80;;;;;;;2.92;50.13;98378.34;5043710;28;20043;-69
2021/11/30 01:53:43;;;;;;;2.90;0.80;;;;;;;2.86;50.34;98377.00;5035465;28;20025;-69
2021/11/30 01:56:09;;;;;;;2.78;0.70;;;;;;;2.91;51.29;98375.88;5039479;28;20033;-68
2021/11/30 01:58:35;;;;;;;7.00;2.10;;;;;;;2.86;51.32;98387.25;5034594;28;20727;-68
2021/11/30 02:01:00;;;;;;;8.00;3.30;;;;;;;2.61;50.74;98393.22;5036955;28;20032;-68
2021/11/30 02:03:26;;;;;;;7.35;2.33;;;;;;;2.53;52.51;98387.72;5040020;28;20044;-68
2021/11/30 02:05:52;;;;;;;5.80;2.00;;;;;;;2.46;52.05;98378.78;5039572;28;20062;-68
2021/11/30 02:08:17;;;;;;;6.82;2.13;;;;;;;2.54;53.51;98391.09;5042381;28;20387;-69
2021/11/30 02:10:43;;;;;;;5.05;1.73;;;;;;;2.33;53.57;98355.66;5045088;28;20186;-68
2021/11/30 02:13:09;;;;;;;4.60;1.55;;;;;;;2.53;53.26;98387.72;5057463;28;20808;-68
2021/11/30 02:15:39;;;;;;;4.13;1.42;;;;;;;2.46;53.50;98386.47;5053839;28;20036;-68
2021/11/30 02:18:11;;;;;;;2.15;0.70;;;;;;;2.02;52.43;98343.97;5048444;28;20024;-68
2021/11/30 02:20:38;;;;;;;2.67;0.70;;;;;;;2.30;52.69;98389.22;5065309;28;20028;-69
2021/11/30 02:23:06;;;;;;;2.47;0.63;;;;;;;2.35;53.08;98389.72;5026105;28;20029;-68
2021/11/30 02:25:31;;;;;;;2.30;0.50;;;;;;;2.30;53.64;98396.94;5046611;28;20032;-69
2021/11/30 02:27:56;;;;;;;2.38;0.60;;;;;;;2.24;54.14;98379.34;5058793;28;20601;-69
2021/11/30 02:30:22;;;;;;;1.95;0.60;;;;;;;2.04;53.32;98342.94;5053503;28;20032;-69
2021/11/30 02:32:48;;;;;;;1.42;0.40;;;;;;;2.17;52.77;98342.97;5045903;28;20563;-69
2021/11/30 02:35:15;;;;;;;1.38;0.50;;;;;;;2.51;52.90;98392.16;5023882;28;20389;-69
2021/11/30 02:37:48;;;;;;;1.65;0.55;;;;;;;2.54;52.55;98391.97;5044080;28;20017;-69
2021/11/30 02:40:15;;;;;;;2.00;0.50;;;;;;;2.60;50.58;98385.59;5056456;28;20755;-69
2021/11/30 02:42:41;;;;;;;0.70;0.30;;;;;;;2.56;49.08;98390.09;5061621;28;20036;-69
2021/11/30 02:45:07;;;;;;;1.73;0.55;;;;;;;2.68;48.50;98388.47;5045103;28;20410;-69
2021/11/30 02:47:32;;;;;;;1.48;0.45;;;;;;;2.52;47.35;98347.59;5061971;28;20040;-69
2021/11/30 02:49:58;;;;;;;1.63;0.60;;;;;;;2.70;47.00;98384.06;5057960;28;20714;-69
2021/11/30 02:52:24;;;;;;;2.63;0.50;;;;;;;2.75;46.54;98382.00;5064780;28;20039;-69
2021/11/30 02:54:53;;;;;;;0.50;0.25;;;;;;;2.88;46.45;98379.47;5061538;28;20028;-69
2021/11/30 02:57:20;;;;;;;1.73;0.50;;;;;;;2.90;47.63;98372.47;5068624;28;20043;-69
2021/11/30 02:59:47;;;;;;;1.85;0.60;;;;;;;3.04;49.51;98381.84;5058064;28;20354;-69
2021/11/30 03:02:20;;;;;;;1.55;0.50;;;;;;;3.05;51.88;98386.06;5035452;28;20040;-69
2021/11/30 03:04:48;;;;;;;1.45;0.60;;;;;;;3.06;51.65;98385.13;5066692;28;20123;-69
2021/11/30 03:07:20;;;;;;;2.35;0.75;;;;;;;2.97;51.90;98393.44;5064018;28;20056;-69
2021/11/30 03:09:45;;;;;;;2.17;0.70;;;;;;;2.61;51.55;98357.25;5015665;28;20722;-69
2021/11/30 03:12:11;;;;;;;1.77;0.60;;;;;;;2.92;53.56;98398.06;5038656;28;20034;-68
2021/11/30 03:14:37;;;;;;;1.80;0.70;;;;;;;2.85;55.05;98401.03;5045376;28;20035;-68
2021/11/30 03:17:03;;;;;;;2.65;0.65;;;;;;;2.61;55.34;98359.00;5056645;28;20031;-69
2021/11/30 03:19:29;;;;;;;2.22;0.70;;;;;;;2.57;56.30;98339.59;5060420;28;20035;-69
2021/11/30 03:21:55;;;;;;;2.85;0.80;;;;;;;2.62;54.91;98342.69;5048649;28;20024;-69
2021/11/30 03:24:21;;;;;;;3.30;0.80;;;;;;;2.80;54.83;98392.81;5045932;28;20135;-69
2021/11/30 03:26:46;;;;;;;2.55;0.70;;;;;;;2.69;54.83;98390.13;5044208;28;20489;-69
2021/11/30 03:29:12;;;;;;;3.25;0.90;;;;;;;2.82;54.59;98401.22;5059579;28;20101;-69
2021/11/30 03:34:14;;;;;;;2.88;0.80;;;;;;;2.88;53.34;98392.28;5055981;28;20044;-69
2021/11/30 03:36:40;;;;;;;2.20;0.70;;;;;;;2.89;53.15;98399.09;5043988;28;20029;-69
2021/11/30 03:39:10;;;;;;;3.83;0.63;;;;;;;2.89;52.67;98392.19;5028103;28;20037;-69
2021/11/30 03:41:35;;;;;;;1.08;0.50;;;;;;;2.76;53.38;98404.22;5040819;28;20583;-69
2021/11/30 03:44:02;;;;;;;2.40;0.60;;;;;;;2.84;52.18;98411.41;5021483;28;20071;-69
2021/11/30 03:46:27;;;;;;;1.70;0.70;;;;;;;2.72;52.57;98404.50;5039466;28;20462;-69
2021/11/30 03:48:54;;;;;;;2.13;0.60;;;;;;;2.75;52.72;98412.81;5029307;28;20020;-69
2021/11/30 03:51:19;;;;;;;1.65;0.57;;;;;;;2.74;53.34;98429.16;5064323;28;20032;-69
2021/11/30 03:53:45;;;;;;;3.65;0.68;;;;;;;2.55;53.28;98395.34;5038361;28;20527;-69
2021/11/30 03:56:10;;;;;;;2.63;0.70;;;;;;;2.59;53.56;98402.75;5062036;28;20291;-69
2021/11/30 03:58:35;;;;;;;1.73;0.60;;;;;;;2.71;52.65;98439.63;5063207;28;20090;-69
2021/11/30 04:01:01;;;;;;;2.13;0.77;;;;;;;2.69;50.85;98426.06;5042393;28;20032;-69
2021/11/30 04:03:29;;;;;;;2.63;0.60;;;;;;;2.92;50.63;98439.16;5032120;28;20616;-69
2021/11/30 04:05:55;;;;;;;2.45;0.70;;;;;;;2.77;50.89;98423.00;5040526;28;20027;-69
2021/11/30 04:08:20;;;;;;;2.35;0.73;;;;;;;2.81;50.50;98427.84;5043397;28;20029;-69
2021/11/30 04:10:46;;;;;;;2.63;0.52;;;;;;;2.86;50.10;98427.53;5042928;28;20016;-69
2021/11/30 04:13:11;;;;;;;1.95;0.52;;;;;;;3.01;51.54;98441.09;5063937;28;20033;-69
2021/11/30 04:15:36;;;;;;;1.98;0.55;;;;;;;2.74;50.85;98393.22;5056524;28;20083;-69
2021/11/30 04:18:02;;;;;;;1.48;0.50;;;;;;;2.99;50.65;98438.63;5044693;28;20028;-69
2021/11/30 04:20:28;;;;;;;2.05;0.60;;;;;;;2.65;50.17;98391.25;5032359;28;20032;-69
2021/11/30 04:22:53;;;;;;;2.67;0.60;;;;;;;2.89;51.40;98447.88;5044775;28;20108;-69
2021/11/30 04:25:19;;;;;;;1.85;0.60;;;;;;;2.80;51.53;98439.03;5054787;28;20028;-69
2021/11/30 04:27:44;;;;;;;2.88;0.70;;;;;;;2.40;51.99;98395.41;5043786;28;20041;-69
2021/11/30 04:30:10;;;;;;;2.35;0.70;;;;;;;2.67;52.08;98438.19;5021095;28;20131;-69
2021/11/30 04:32:36;;;;;;;2.72;0.75;;;;;;;2.70;53.64;98458.50;5031935;28;20040;-69
2021/11/30 04:35:03;;;;;;;2.53;0.60;;;;;;;2.56;53.79;98454.28;5036099;28;20032;-69
2021/11/30 04:37:28;;;;;;;1.95;0.60;;;;;;;2.63;54.60;98455.53;5040205;28;20032;-69
2021/11/30 04:39:54;;;;;;;1.55;0.50;;;;;;;2.62;54.35;98455.63;5039518;28;20055;-69
2021/11/30 04:42:22;;;;;;;3.35;0.77;;;;;;;2.49;54.74;98435.88;5024835;28;20113;-69
2021/11/30 04:44:55;;;;;;;3.00;0.68;;;;;;;2.53;54.35;98445.94;5042007;28;20627;-69
2021/11/30 04:47:21;;;;;;;2.25;0.75;;;;;;;2.64;54.03;98449.47;5040004;28;20024;-69
2021/11/30 04:49:59;;;;;;;2.15;0.50;;;;;;;2.51;54.57;98422.94;5030480;28;20534;-69
2021/11/30 04:52:25;;;;;;;3.20;0.68;;;;;;;2.48;54.76;98444.50;5040451;28;20494;-69
2021/11/30 04:54:50;;;;;;;2.67;0.60;;;;;;;2.45;55.11;98460.09;5043260;28;20127;-69
2021/11/30 04:57:16;;;;;;;2.80;0.80;;;;;;;2.21;54.17;98403.47;5014140;28;20136;-69
2021/11/30 04:59:41;;;;;;;1.85;0.60;;;;;;;2.63;54.70;98463.25;5040246;28;20433;-70
2021/11/30 05:02:07;;;;;;;2.13;0.70;;;;;;;2.34;54.43;98410.34;5026572;28;20029;-69
2021/11/30 05:04:34;;;;;;;1.48;0.50;;;;;;;2.58;54.93;98467.03;5011443;28;20028;-69
2021/11/30 05:06:59;;;;;;;2.03;0.55;;;;;;;2.66;55.00;98473.28;5024435;28;20044;-69
2021/11/30 05:09:25;;;;;;;1.92;0.70;;;;;;;2.77;54.87;98484.63;5032308;28;20075;-69
2021/11/30 05:11:50;;;;;;;2.42;0.70;;;;;;;2.49;56.77;98438.44;5026643;28;20039;-69
2021/11/30 05:14:16;;;;;;;2.65;0.70;;;;;;;2.64;57.33;98471.75;5042242;28;20665;-69
2021/11/30 05:16:42;;;;;;;3.42;0.90;;;;;;;2.61;55.66;98448.84;5053625;28;20033;-69
2021/11/30 05:19:07;;;;;;;2.10;0.65;;;;;;;2.86;55.46;98486.59;5057266;28;20405;-69
2021/11/30 05:21:33;;;;;;;5.07;0.88;;;;;;;2.71;53.93;98493.56;5047245;28;20118;-70
2021/11/30 05:24:06;;;;;;;2.47;0.70;;;;;;;2.59;54.05;98490.03;5040146;28;20731;-69
2021/11/30 05:26:32;;;;;;;5.65;0.80;;;;;;;2.56;54.48;98497.09;5041395;28;20032;-69
2021/11/30 05:28:58;;;;;;;1.95;0.70;;;;;;;2.57;58.11;98504.69;5040121;28;20437;-69
2021/11/30 05:31:24;;;;;;;2.63;0.70;;;;;;;2.67;58.72;98505.75;5018022;28;20378;-69
2021/11/30 05:33:50;;;;;;;2.67;0.70;;;;;;;2.65;57.70;98501.66;5038212;28;20035;-69
2021/11/30 05:36:19;;;;;;;2.67;0.77;;;;;;;2.62;60.47;98512.91;5058661;28;20082;-69
2021/11/30 05:38:45;;;;;;;2.28;0.70;;;;;;;2.59;61.33;98512.28;5036586;28;20104;-69
2021/11/30 05:41:11;;;;;;;2.00;0.57;;;;;;;2.46;62.53;98518.22;5039412;28;20173;-69
2021/11/30 05:43:36;;;;;;;2.75;0.88;;;;;;;2.53;63.20;98513.50;5031745;28;20028;-70
2021/11/30 05:46:02;;;;;;;2.10;0.68;;;;;;;2.55;62.22;98513.41;5035609;28;20116;-68
2021/11/30 05:48:28;;;;;;;3.55;0.80;;;;;;;2.62;61.22;98522.38;5054578;28;20078;-69
2021/11/30 05:50:53;;;;;;;1.88;0.60;;;;;;;2.68;60.74;98516.84;5043778;28;20089;-69
2021/11/30 05:53:19;;;;;;;4.72;0.80;;;;;;;2.77;60.00;98521.38;5057895;28;20044;-69
2021/11/30 05:55:48;;;;;;;2.47;0.70;;;;;;;2.59;57.27;98517.44;5043891;28;20102;-69
2021/11/30 05:58:15;;;;;;;2.80;0.90;;;;;;;2.50;56.73;98508.56;5038788;28;20021;-69
2021/11/30 06:00:40;;;;;;;5.43;0.88;;;;;;;2.47;56.10;98493.38;5036779;28;21263;-69
2021/11/30 06:03:27;;;;;;;3.17;0.85;;;;;;;2.23;55.67;98490.59;5029246;28;20021;-68
2021/11/30 06:05:53;;;;;;;3.00;0.80;;;;;;;2.24;55.37;98517.88;5035769;28;20074;-69
2021/11/30 06:08:18;;;;;;;3.03;0.70;;;;;;;2.24;55.36;98520.44;5048879;28;20099;-69
2021/11/30 06:10:43;;;;;;;2.08;0.60;;;;;;;2.29;54.92;98521.00;5041551;28;20032;-69
2021/11/30 06:13:09;;;;;;;3.55;0.80;;;;;;;2.27;54.96;98528.78;5041285;28;23611;-69
2021/11/30 06:15:34;;;;;;;24.88;11.80;;;;;;;2.21;54.81;98525.75;5050683;28;20060;-69
2021/11/30 06:18:00;;;;;;;12.02;5.80;;;;;;;2.17;54.61;98532.00;5035897;28;20163;-69
2021/11/30 06:20:26;;;;;;;3.88;0.90;;;;;;;1.91;54.19;98483.94;5044868;28;20027;-68
2021/11/30 06:22:52;;;;;;;3.55;1.23;;;;;;;1.85;53.31;98484.31;5040573;28;20033;-69
2021/11/30 06:25:17;;;;;;;4.22;0.70;;;;;;;2.24;54.14;98551.22;5047910;28;20047;-68
2021/11/30 06:27:45;;;;;;;3.33;0.70;;;;;;;2.27;54.85;98551.06;5047801;28;20766;-69
2021/11/30 06:30:11;;;;;;;1.73;0.57;;;;;;;2.38;53.43;98545.28;5015756;28;20998;-69
2021/11/30 06:32:36;;;;;;;2.15;0.60;;;;;;;2.16;54.30;98512.41;5043402;28;20035;-69
2021/11/30 06:35:03;;;;;;;2.45;0.70;;;;;;;2.05;55.13;98488.22;5045859;28;20024;-68
2021/11/30 06:37:28;;;;;;;3.17;0.80;;;;;;;2.51;56.88;98556.41;5041716;28;20032;-69
2021/11/30 06:39:54;;;;;;;2.42;0.77;;;;;;;2.19;57.28;98499.38;5046240;28;20032;-68
2021/11/30 06:42:20;;;;;;;1.42;0.50;;;;;;;2.56;57.10;98548.44;5030469;28;20031;-68
2021/11/30 06:44:47;;;;;;;2.90;1.00;;;;;;;2.44;55.96;98539.75;5021291;28;20024;-68
2021/11/30 06:47:12;;;;;;;2.40;0.70;;;;;;;2.49;55.27;98553.94;5037419;28;20123;-68
2021/11/30 06:49:38;;;;;;;2.30;0.60;;;;;;;2.14;53.92;98507.38;5051726;28;20037;-68
2021/11/30 06:52:03;;;;;;;2.63;0.70;;;;;;;2.39;55.40;98544.34;5051385;28;20390;-68
2021/11/30 06:54:29;;;;;;;2.65;0.73;;;;;;;2.48;56.47;98567.72;5036285;28;20047;-69
2021/11/30 06:56:54;;;;;;;1.52;0.50;;;;;;;2.40;57.56;98577.59;5030414;28;20047;-68
2021/11/30 06:59:20;;;;;;;2.53;0.75;;;;;;;2.22;58.93;98553.06;5045227;28;20476;-68
2021/11/30 07:01:46;;;;;;;2.08;0.63;;;;;;;2.12;58.49;98540.00;5054608;28;20029;-68
2021/11/30 07:04:12;;;;;;;2.92;0.75;;;;;;;2.24;57.95;98574.31;5050746;28;20135;-68
2021/11/30 07:06:48;;;;;;;2.45;0.80;;;;;;;2.31;58.32;98580.72;5045168;28;20125;-68
2021/11/30 07:09:22;;;;;;;4.38;0.85;;;;;;;2.36;59.57;98588.97;5055727;28;20033;-68
2021/11/30 07:12:03;;;;;;;2.65;0.70;;;;;;;2.35;60.48;98583.94;5060323;28;20035;-69
2021/11/30 07:14:31;;;;;;;2.53;0.70;;;;;;;2.30;59.92;98599.63;5055371;28;20072;-68
2021/11/30 07:16:56;;;;;;;2.88;1.02;;;;;;;2.30;59.89;98604.75;5013680;28;20458;-68
2021/11/30 07:19:22;;;;;;;9.13;4.10;;;;;;;2.26;60.69;98593.84;5053830;28;20116;-68
2021/11/30 07:21:47;;;;;;;10.35;4.70;;;;;;;2.21;61.80;98569.38;5061041;28;20489;-68
2021/11/30 07:24:12;;;;;;;5.40;2.05;;;;;;;2.37;60.65;98606.00;5042855;28;20111;-68
2021/11/30 07:26:38;;;;;;;7.25;4.15;;;;;;;2.02;59.82;98559.41;5034872;28;20028;-68
2021/11/30 07:29:04;;;;;;;9.57;5.72;;;;;;;2.35;58.78;98620.69;5057408;28;20033;-68
2021/11/30 07:31:29;;;;;;;4.05;1.20;;;;;;;2.29;59.31;98615.94;5056682;28;20039;-67
2021/11/30 07:33:55;;;;;;;4.05;1.10;;;;;;;2.36;58.69;98616.41;5050043;28;20447;-69
2021/11/30 07:36:20;;;;;;;4.25;1.00;;;;;;;2.36;58.26;98612.09;5049361;28;20021;-68
2021/11/30 07:38:48;;;;;;;3.40;0.98;;;;;;;2.39;58.61;98623.88;5028799;28;20052;-68
2021/11/30 07:41:15;;;;;;;2.95;0.80;;;;;;;2.19;58.86;98581.47;5039214;28;20024;-68
2021/11/30 07:43:40;;;;;;;2.75;0.80;;;;;;;2.20;57.21;98578.81;5033116;28;20033;-68
2021/11/30 07:46:06;;;;;;;5.53;0.90;;;;;;;2.39;56.03;98617.03;5053213;28;20823;-69
2021/11/30 07:48:32;;;;;;;4.80;1.13;;;;;;;2.40;55.57;98634.06;5039846;28;20056;-68
2021/11/30 07:51:00;;;;;;;1.83;0.60;;;;;;;2.41;54.73;98625.47;5037695;28;20413;-68
2021/11/30 07:53:25;;;;;;;2.70;0.75;;;;;;;2.19;55.24;98591.72;5054520;28;20028;-68
2021/11/30 07:55:52;;;;;;;3.10;0.80;;;;;;;2.50;55.67;98649.72;5044737;28;20078;-68
2021/11/30 07:58:19;;;;;;;2.22;0.77;;;;;;;2.54;56.59;98647.78;5037326;28;20029;-68
2021/11/30 08:00:45;;;;;;;2.20;0.70;;;;;;;2.54;57.76;98642.66;5047365;28;20706;-68
2021/11/30 08:03:11;;;;;;;3.00;0.90;;;;;;;2.31;57.25;98601.25;5060710;28;20021;-68
2021/11/30 08:05:36;;;;;;;2.25;0.60;;;;;;;2.38;56.62;98610.25;5056494;28;20059;-69
2021/11/30 08:08:02;;;;;;;3.78;0.63;;;;;;;2.26;56.00;98582.75;5050251;28;20135;-68
2021/11/30 08:10:28;;;;;;;2.97;0.80;;;;;;;2.47;55.87;98630.22;5043198;28;20823;-68
2021/11/30 08:12:55;;;;;;;1.67;0.52;;;;;;;2.41;56.03;98633.16;5033333;28;20020;-68
2021/11/30 08:15:20;;;;;;;3.22;0.93;;;;;;;2.42;56.63;98636.53;5054031;28;20090;-68
2021/11/30 08:17:46;;;;;;;2.58;0.68;;;;;;;2.46;56.34;98643.97;5039948;28;20044;-68
2021/11/30 08:20:12;;;;;;;2.67;0.80;;;;;;;2.23;56.56;98616.31;5026734;28;20552;-68
2021/11/30 08:22:38;;;;;;;2.47;0.70;;;;;;;2.41;56.29;98633.16;5034385;28;20537;-68
2021/11/30 08:25:04;;;;;;;1.92;0.60;;;;;;;2.11;56.81;98589.63;5036541;28;20027;-68
2021/11/30 08:27:31;;;;;;;3.25;1.00;;;;;;;2.46;56.98;98638.84;5037824;28;20041;-68
2021/11/30 08:29:56;;;;;;;2.78;0.80;;;;;;;2.49;57.40;98641.22;5041000;28;20025;-69
2021/11/30 08:32:23;;;;;;;2.47;0.75;;;;;;;2.40;57.24;98626.38;5037800;28;20044;-68
2021/11/30 08:34:52;;;;;;;4.82;1.05;;;;;;;2.52;57.16;98641.94;5035832;28;20025;-68
2021/11/30 08:37:18;;;;;;;;;;;;;;;2.54;56.84;98637.53;5056915;28;20087;-68
2021/11/30 08:39:44;;;;;;;2.80;0.75;;;;;;;2.58;56.42;98636.44;5053940;28;19920;-68
2021/11/30 08:42:12;;;;;;;2.45;0.70;;;;;;;2.41;56.23;98589.53;5028211;28;20077;-68
2021/11/30 08:44:37;;;;;;;2.88;0.80;;;;;;;2.55;56.29;98591.22;5021534;28;20057;-68
2021/11/30 08:47:05;;;;;;;2.80;0.73;;;;;;;2.80;55.99;98630.81;5039630;28;20511;-68
2021/11/30 08:49:31;;;;;;;2.00;0.63;;;;;;;2.81;56.98;98619.59;5035060;28;20040;-68
2021/11/30 08:51:57;;;;;;;3.17;0.80;;;;;;;2.87;56.57;98617.50;5039608;28;20021;-68
2021/11/30 08:54:24;;;;;;;1.98;0.63;;;;;;;2.74;57.19;98602.94;5057081;28;20454;-68
2021/11/30 08:56:49;;;;;;;1.92;0.57;;;;;;;2.83;53.45;98600.63;5038173;28;20047;-68
2021/11/30 08:59:15;;;;;;;2.22;0.70;;;;;;;3.09;53.10;98631.56;5035302;28;20391;-68
2021/11/30 09:01:42;;;;;;;2.30;0.70;;;;;;;3.07;55.88;98620.56;5040411;28;20111;-67
2021/11/30 09:04:08;;;;;;;1.92;0.70;;;;;;;3.17;55.55;98626.75;5053546;28;20032;-67
2021/11/30 09:06:34;;;;;;;2.70;0.80;;;;;;;3.18;53.45;98643.00;5044246;28;20660;-67
2021/11/30 09:08:59;;;;;;;2.08;0.80;;;;;;;3.16;52.75;98627.69;5054279;28;20028;-68
2021/11/30 09:11:25;;;;;;;2.85;0.95;;;;;;;3.14;53.58;98638.97;5052636;28;20119;-67
2021/11/30 09:13:51;;;;;;;2.35;0.80;;;;;;;3.10;54.98;98640.91;5036375;28;20032;-67
2021/11/30 09:16:17;;;;;;;2.85;0.80;;;;;;;3.08;54.38;98630.75;5023612;28;20527;-68
2021/11/30 09:18:43;;;;;;;4.30;1.58;;;;;;;3.08;47.21;98628.19;5021633;28;20043;-68
2021/11/30 09:21:08;;;;;;;5.82;2.05;;;;;;;3.21;46.47;98647.94;5037693;28;20808;-68
2021/11/30 09:23:34;;;;;;;7.35;2.70;;;;;;;3.25;48.19;98631.41;5032471;28;20388;-67
2021/11/30 09:26:01;;;;;;;4.22;1.65;;;;;;;3.00;44.51;98594.41;5007285;28;20036;-68
2021/11/30 09:28:26;;;;;;;2.65;0.80;;;;;;;3.52;42.25;98651.94;5035397;28;20040;-68
2021/11/30 09:30:52;;;;;;;2.33;0.70;;;;;;;3.63;44.03;98657.22;5027066;28;20099;-68
2021/11/30 09:33:19;;;;;;;2.67;0.75;;;;;;;3.61;50.11;98635.94;5022441;28;20060;-67
2021/11/30 09:35:44;;;;;;;3.03;0.90;;;;;;;3.47;51.42;98623.16;5053198;28;20052;-67
2021/11/30 09:38:10;;;;;;;2.42;0.80;;;;;;;3.24;52.80;98607.44;5054250;28;20529;-68
2021/11/30 09:40:37;;;;;;;2.50;0.98;;;;;;;3.47;52.72;98646.28;5051874;28;20125;-68
2021/11/30 09:43:03;;;;;;;5.35;1.42;;;;;;;3.54;51.84;98637.25;5043112;28;20036;-68
2021/11/30 09:45:33;;;;;;;3.58;1.00;;;;;;;3.34;50.58;98614.56;5050207;28;20455;-68
2021/11/30 09:47:59;;;;;;;5.05;1.02;;;;;;;3.24;50.68;98598.91;5025801;28;20031;-67
2021/11/30 09:50:25;;;;;;;5.13;1.17;;;;;;;3.54;51.45;98626.97;5033995;28;20020;-68
2021/11/30 09:52:55;;;;;;;5.38;2.10;;;;;;;3.76;50.58;98635.81;5055409;28;20356;-68
2021/11/30 09:55:24;;;;;;;4.60;1.90;;;;;;;3.64;49.49;98620.28;5044171;28;20475;-68
2021/11/30 09:57:53;;;;;;;6.00;1.60;;;;;;;3.71;49.64;98632.75;5055067;28;20020;-68
2021/11/30 10:00:21;;;;;;;3.92;0.80;;;;;;;3.80;49.28;98616.72;5038060;28;20525;-67
2021/11/30 10:02:48;;;;;;;5.18;1.00;;;;;;;3.89;50.65;98622.97;5021515;28;20415;-67
2021/11/30 10:05:15;;;;;;;2.00;0.60;;;;;;;3.99;50.15;98611.97;5054494;28;20025;-67
2021/11/30 10:07:51;;;;;;;5.88;1.27;;;;;;;3.97;48.71;98606.09;5040528;28;20020;-68
2021/11/30 10:10:28;;;;;;;4.40;1.92;;;;;;;4.11;48.99;98610.34;5048736;28;20814;-68
2021/11/30 10:12:59;;;;;;;7.03;1.75;;;;;;;3.98;47.89;98565.75;5041051;28;20123;-67
2021/11/30 10:15:26;;;;;;;3.35;1.20;;;;;;;4.13;47.20;98610.25;5047155;28;20044;-68
2021/11/30 10:17:52;;;;;;;4.78;1.50;;;;;;;4.12;47.37;98606.81;5040049;28;20021;-67
2021/11/30 10:20:17;;;;;;;3.72;1.15;;;;;;;3.91;46.85;98555.09;5038176;28;20483;-68
2021/11/30 10:22:48;;;;;;;2.67;0.80;;;;;;;4.39;48.33;98596.38;5015945;28;20851;-68
2021/11/30 10:25:18;;;;;;;2.65;0.70;;;;;;;4.45;47.51;98582.28;5035280;28;20072;-67
2021/11/30 10:27:45;;;;;;;;;;;;;;;4.51;48.54;98602.47;5052891;28;20041;-67
2021/11/30 10:30:15;;;;;;;5.75;2.22;;;;;;;4.48;47.34;98587.22;5041598;28;19916;-68
2021/11/30 10:32:45;;;;;;;7.15;3.85;;;;;;;4.48;47.25;98583.81;5008227;28;20048;-67
2021/11/30 10:35:10;;;;;;;;;;;;;;;4.54;46.69;98575.66;5043569;28;20116;-68
2021/11/30 10:37:41;;;;;;;15.07;5.43;;;;;;;4.29;46.64;98527.63;5027895;28;20007;-67
2021/11/30 10:40:12;;;;;;;19.80;9.52;;;;;;;4.66;47.45;98569.66;5021206;28;20024;-67
2021/11/30 10:42:52;;;;;;;17.20;8.45;;;;;;;4.75;46.69;98560.47;5022166;28;20126;-68
2021/11/30 10:45:38;;;;;;;23.95;11.55;;;;;;;4.84;46.66;98554.66;5037138;28;20021;-68
2021/11/30 10:48:09;;;;;;;15.75;7.45;;;;;;;4.81;48.09;98563.41;5024347;28;20114;-68
2021/11/30 10:50:46;;;;;;;2.67;0.80;;;;;;;4.92;47.77;98556.66;5052043;28;20047;-67
2021/11/30 10:53:30;;;;;;;3.65;1.30;;;;;;;4.93;47.25;98550.59;5048036;28;20098;-67
2021/11/30 10:56:01;;;;;;;4.32;1.40;;;;;;;4.70;48.16;98508.44;5040410;28;20033;-68
2021/11/30 10:58:29;;;;;;;5.60;2.28;;;;;;;4.95;47.12;98538.44;5042970;28;20497;-67
2021/11/30 11:00:57;;;;;;;4.32;1.63;;;;;;;5.13;47.00;98546.56;5044696;28;20020;-68
2021/11/30 11:03:23;;;;;;;6.43;1.73;;;;;;;5.11;46.80;98536.38;5048169;28;20505;-67
2021/11/30 11:08:39;;;;;;;2.70;0.70;;;;;;;5.17;46.93;98541.06;5053326;28;20094;-68
2021/11/30 11:11:05;;;;;;;4.75;0.90;;;;;;;5.03;46.50;98509.50;5039972;28;20265;-68
2021/11/30 11:13:34;;;;;;;2.20;0.68;;;;;;;5.18;47.78;98527.25;5057289;28;20062;-68
2021/11/30 11:16:05;;;;;;;3.00;0.88;;;;;;;5.26;48.77;98538.78;5037143;28;20080;-68
2021/11/30 11:18:33;;;;;;;2.75;0.82;;;;;;;5.30;47.75;98545.34;5042115;28;20401;-67
2021/11/30 11:21:24;;;;;;;3.03;0.70;;;;;;;5.34;47.20;98542.41;5065732;28;20028;-67
2021/11/30 11:24:12;;;;;;;2.63;0.70;;;;;;;5.47;47.77;98550.06;5061144;28;20662;-68
2021/11/30 11:26:50;;;;;;;1.73;0.60;;;;;;;5.27;46.52;98505.13;5065331;28;20020;-66
2021/11/30 11:29:21;;;;;;;2.45;0.70;;;;;;;5.55;47.18;98546.94;5033283;28;20036;-67
2021/11/30 11:31:48;;;;;;;2.97;0.70;;;;;;;5.32;47.67;98502.22;5039725;28;20028;-67
2021/11/30 11:34:16;;;;;;;2.03;0.65;;;;;;;5.55;47.20;98518.56;5054355;28;20021;-67
2021/11/30 11:36:44;;;;;;;2.10;0.57;;;;;;;5.54;46.08;98532.38;5041952;28;20029;-67
2021/11/30 11:39:09;;;;;;;2.78;0.70;;;;;;;5.58;46.63;98533.78;5026737;28;20037;-67
2021/11/30 11:41:35;;;;;;;3.15;0.90;;;;;;;5.57;46.79;98530.38;5025965;28;20663;-68
2021/11/30 11:44:00;;;;;;;1.70;0.50;;;;;;;5.54;45.62;98525.44;5047946;28;20036;-67
2021/11/30 11:46:32;;;;;;;2.42;0.75;;;;;;;5.19;46.12;98471.38;5056660;28;20059;-67
2021/11/30 11:48:59;;;;;;;2.70;0.70;;;;;;;5.49;45.70;98512.06;5033641;28;20021;-67
2021/11/30 11:51:34;;;;;;;4.53;0.82;;;;;;;5.57;46.60;98514.91;5030046;28;20489;-67